Terminal Aerodrome Forecast
Issued by NWS

Home | Current Version | Previous Version | Text Only | Print | Product List | Glossary On
Versions: 1 2 3 4 5 6 7 8 9 10 11 12 13 14 15
000
FTAK31 PAJN 012300
TAFAWG
TAF
PAWG 012328Z 0200/0224 17008KT P6SM VCSH SCT025 BKN050
      TEMPO 0200/0204 -SHRA SCT010 BKN030 OVC050
     FM020400 13005KT P6SM BKN050 OVC100
     FM020800 13012G20KT P6SM -RA SCT025 OVC040 WS020/14030KT
     FM022000 13012KT 6SM -RA BKN025 OVC040
      AMD LTD TO CLD VIS AND WIND 0206/0215=

USA.gov is the U.S. government's official web portal to all federal, state and local government web resources and services.